Time;durP1;ratioP1;P1;durP2;ratioP2;P2;SDS_P1;SDS_P2;PMS_P1;PMS_P2;Temp;Humidity;BMP_temperature;BMP_pressure;BME280_temperature;BME280_humidity;BME280_pressure;Samples;Min_cycle;Max_cycle;Signal;HPM_P1;HPM_P2
2022/03/16 00:01:37;;;;;;;6.28;2.87;;;11.60;55.00;;;;;;2338192;53;20971;-66
2022/03/16 00:04:07;;;;;;;4.93;2.58;;;11.60;55.00;;;;;;2344836;53;20975;-66
2022/03/16 00:06:43;;;;;;;7.45;2.60;;;11.50;54.90;;;;;;2346775;53;21027;-66
2022/03/16 00:09:21;;;;;;;5.20;2.95;;;11.50;55.10;;;;;;2313839;54;21033;-66
2022/03/16 00:11:55;;;;;;;5.62;3.05;;;11.50;55.20;;;;;;2322765;54;21500;-66
2022/03/16 00:14:23;;;;;;;7.43;3.45;;;11.50;55.30;;;;;;2326901;54;20994;-66
2022/03/16 00:16:59;;;;;;;5.20;2.78;;;11.40;55.30;;;;;;2329949;54;21361;-66
2022/03/16 00:19:27;;;;;;;5.30;3.05;;;11.40;55.30;;;;;;2293479;53;21059;-66
2022/03/16 00:22:04;;;;;;;6.62;2.83;;;11.40;55.40;;;;;;2389230;54;20969;-66
2022/03/16 00:24:36;;;;;;;7.68;3.05;;;11.40;55.80;;;;;;2321377;54;21107;-66
2022/03/16 00:27:03;;;;;;;5.12;2.87;;;11.30;55.60;;;;;;2401713;53;20986;-65
2022/03/16 00:29:42;;;;;;;5.78;2.92;;;11.30;55.60;;;;;;2318522;54;20944;-66
2022/03/16 00:32:10;;;;;;;5.72;2.67;;;11.30;55.80;;;;;;2348426;53;20959;-66
2022/03/16 00:34:40;;;;;;;6.18;3.17;;;11.30;55.70;;;;;;2307759;53;20992;-66
2022/03/16 00:37:07;;;;;;;7.85;3.22;;;11.30;55.70;;;;;;2432548;53;20924;-65
2022/03/16 00:39:37;;;;;;;7.60;4.07;;;11.30;55.80;;;;;;2324098;54;21074;-66
2022/03/16 00:42:08;;;;;;;7.15;4.12;;;11.30;55.90;;;;;;2338110;53;21035;-66
2022/03/16 00:44:43;;;;;;;7.55;4.72;;;11.30;56.00;;;;;;2346554;53;21037;-66
2022/03/16 00:47:19;;;;;;;7.25;3.87;;;11.30;56.40;;;;;;2342757;53;20972;-66
2022/03/16 00:50:02;;;;;;;;;;;;;;;;;;;;;
2022/03/16 00:52:28;;;;;;;9.15;4.28;;;11.30;56.40;;;;;;2345572;54;21003;-66
2022/03/16 00:55:05;;;;;;;7.18;4.30;;;11.20;56.40;;;;;;2349820;54;20938;-66
2022/03/16 00:57:33;;;;;;;7.72;4.40;;;11.30;57.00;;;;;;2466882;52;21023;-66
2022/03/16 01:00:13;;;;;;;6.50;4.22;;;11.30;56.80;;;;;;2373004;52;20958;-65
2022/03/16 01:02:40;;;;;;;10.38;5.03;;;11.30;56.90;;;;;;2376501;52;20954;-66
2022/03/16 01:06:02;;;;;;;7.03;4.47;;;11.30;56.90;;;;;;2425305;52;21032;-65
2022/03/16 01:08:38;;;;;;;7.93;4.55;;;11.40;57.80;;;;;;2369816;53;20946;-66
2022/03/16 01:11:11;;;;;;;8.65;4.85;;;11.30;56.80;;;;;;2372556;54;21017;-66
2022/03/16 01:13:55;;;;;;;7.93;5.22;;;11.40;57.20;;;;;;2503905;52;20939;-66
2022/03/16 01:16:27;;;;;;;8.63;5.43;;;11.40;57.40;;;;;;2388767;52;21039;-67
2022/03/16 01:19:01;;;;;;;7.12;4.45;;;11.40;57.10;;;;;;2334315;54;21038;-66
2022/03/16 01:21:31;;;;;;;10.55;5.07;;;11.40;57.30;;;;;;2345512;54;20985;-66
2022/03/16 01:24:14;;;;;;;8.45;5.75;;;11.50;57.40;;;;;;2332445;54;20982;-65
2022/03/16 01:26:42;;;;;;;10.40;6.20;;;11.50;57.30;;;;;;2361987;53;20975;-66
2022/03/16 01:29:11;;;;;;;9.80;5.78;;;11.50;57.20;;;;;;2326260;54;21009;-65
2022/03/16 01:31:54;;;;;;;8.38;5.43;;;11.50;57.20;;;;;;2321980;54;20953;-66
2022/03/16 01:34:21;;;;;;;9.93;5.65;;;11.50;57.30;;;;;;2342752;54;20976;-66
2022/03/16 01:36:48;;;;;;;12.52;6.50;;;11.50;57.20;;;;;;2345581;53;20980;-67
2022/03/16 01:39:15;;;;;;;9.27;5.95;;;11.50;57.20;;;;;;2341581;54;20996;-66
2022/03/16 01:41:48;;;;;;;10.40;6.22;;;11.50;57.10;;;;;;2345228;54;20953;-66
2022/03/16 01:44:18;;;;;;;9.80;5.28;;;11.50;57.20;;;;;;2334365;55;21055;-66
2022/03/16 01:46:46;;;;;;;9.73;5.78;;;11.50;57.20;;;;;;2350562;53;21038;-66
2022/03/16 01:49:16;;;;;;;9.52;5.70;;;11.50;57.20;;;;;;2348058;54;20947;-66
2022/03/16 01:51:45;;;;;;;10.07;6.10;;;11.50;57.20;;;;;;2343174;57;21127;-66
2022/03/16 01:54:15;;;;;;;13.80;6.40;;;11.50;57.30;;;;;;2347242;53;20986;-66
2022/03/16 01:56:42;;;;;;;9.50;5.93;;;11.50;57.50;;;;;;2341646;55;21572;-66
2022/03/16 01:59:13;;;;;;;10.70;5.95;;;11.50;57.40;;;;;;2323720;54;21032;-66
2022/03/16 02:04:53;;;;;;;7.47;4.62;;;11.50;58.00;;;;;;2320662;54;20786;-66
2022/03/16 02:07:30;;;;;;;;;;;;;;;;;;;;;
2022/03/16 02:10:09;;;;;;;14.15;6.40;;;11.50;57.40;;;;;;2338711;54;20999;-66
2022/03/16 02:13:07;;;;;;;9.18;6.03;;;11.50;57.40;;;;;;2327497;53;21055;-65
2022/03/16 02:15:35;;;;;;;12.35;5.97;;;11.50;57.90;;;;;;2331931;53;21057;-65
2022/03/16 02:18:02;;;;;;;9.00;5.45;;;11.50;57.40;;;;;;2335905;53;21056;-65
2022/03/16 02:20:31;;;;;;;8.95;5.15;;;11.50;57.50;;;;;;2352902;53;20958;-66
2022/03/16 02:22:59;;;;;;;8.40;4.60;;;11.50;57.60;;;;;;2419489;53;21718;-66
2022/03/16 02:25:29;;;;;;;8.02;4.60;;;11.50;57.70;;;;;;2322905;53;20972;-66
2022/03/16 02:27:59;;;;;;;8.88;5.15;;;11.50;57.60;;;;;;2350731;53;20973;-66
2022/03/16 02:34:18;;;;;;;6.90;4.15;;;11.50;57.60;;;;;;2344095;56;20964;-66
2022/03/16 02:36:45;;;;;;;6.78;3.80;;;11.60;58.10;;;;;;2349158;53;20933;-66
2022/03/16 02:39:15;;;;;;;8.10;4.57;;;11.60;57.40;;;;;;2343256;54;20944;-66
2022/03/16 02:41:47;;;;;;;9.68;5.78;;;11.60;57.50;;;;;;2334403;53;21024;-66
2022/03/16 02:44:14;;;;;;;9.53;6.00;;;11.60;57.60;;;;;;2383489;53;21004;-66
2022/03/16 02:49:50;;;;;;;12.80;7.62;;;11.60;57.60;;;;;;2323245;55;21123;-66
2022/03/16 02:52:18;;;;;;;8.52;5.22;;;11.60;58.00;;;;;;2346805;53;21041;-65
2022/03/16 02:54:44;;;;;;;11.75;7.40;;;11.60;57.30;;;;;;2335734;54;20992;-65
2022/03/16 02:57:16;;;;;;;11.93;7.37;;;11.60;57.40;;;;;;2308794;55;21335;-66
2022/03/16 03:00:20;;;;;;;11.95;7.05;;;11.60;57.50;;;;;;2331671;57;20992;-66
2022/03/16 03:03:17;;;;;;;;;;;;;;;;;;;;;
2022/03/16 03:06:02;;;;;;;;;;;;;;;;;;;;;
2022/03/16 03:08:46;;;;;;;11.63;7.00;;;11.60;57.60;;;;;;2346620;54;21006;-66
2022/03/16 03:11:16;;;;;;;13.10;7.75;;;11.60;57.40;;;;;;2348085;53;21073;-66
2022/03/16 03:14:04;;;;;;;12.68;8.15;;;11.50;57.30;;;;;;2372556;52;21044;-66
2022/03/16 03:21:33;;;;;;;12.70;7.30;;;11.50;57.50;;;;;;2320210;55;21036;-66
2022/03/16 03:31:28;;;;;;;10.45;6.47;;;11.40;57.20;;;;;;2344935;56;21048;-66
2022/03/16 03:34:02;;;;;;;12.80;7.78;;;11.40;57.20;;;;;;2324491;54;21691;-66
2022/03/16 03:42:12;;;;;;;13.52;7.87;;;11.30;57.50;;;;;;2445017;53;21469;-66
2022/03/16 03:48:36;;;;;;;10.95;6.30;;;11.20;57.40;;;;;;2439245;53;20957;-66
2022/03/16 03:51:54;;;;;;;12.50;7.12;;;11.20;57.40;;;;;;2369089;53;21402;-66
2022/03/16 03:57:35;;;;;;;10.50;6.32;;;11.20;57.60;;;;;;2323033;54;20935;-65
2022/03/16 04:00:07;;;;;;;10.65;6.45;;;11.20;57.60;;;;;;2340878;54;20963;-65
2022/03/16 04:02:36;;;;;;;12.55;7.10;;;11.10;57.00;;;;;;2351556;54;21504;-66
2022/03/16 04:05:25;;;;;;;13.00;7.47;;;11.10;57.20;;;;;;2321044;53;20976;-66
2022/03/16 04:11:17;;;;;;;11.07;6.78;;;11.10;57.80;;;;;;2325869;53;21137;-66
2022/03/16 04:14:21;;;;;;;12.23;7.20;;;11.00;57.40;;;;;;2348464;53;20993;-66
2022/03/16 04:17:06;;;;;;;;;;;;;;;;;;;;;
2022/03/16 04:20:24;;;;;;;9.20;5.60;;;11.10;57.70;;;;;;2323733;54;21067;-66
2022/03/16 04:26:00;;;;;;;8.57;5.25;;;11.10;58.30;;;;;;2338986;55;21000;-66
2022/03/16 04:28:50;;;;;;;7.43;4.35;;;11.10;58.00;;;;;;2344901;53;22133;-66
2022/03/16 04:31:17;;;;;;;9.88;5.43;;;11.10;57.60;;;;;;2342102;53;20889;-66
2022/03/16 04:34:05;;;;;;;12.10;6.75;;;11.10;57.70;;;;;;2340523;53;20985;-66
2022/03/16 04:36:37;;;;;;;9.65;5.60;;;11.10;58.10;;;;;;2314465;53;20964;-66
2022/03/16 04:42:24;;;;;;;8.75;5.47;;;11.10;58.00;;;;;;2456344;53;20928;-66
2022/03/16 04:57:32;;;;;;;6.05;3.37;;;11.20;58.00;;;;;;2321383;53;20952;-67
2022/03/16 04:59:59;;;;;;;6.43;3.80;;;11.30;57.60;;;;;;2351403;53;20994;-66
2022/03/16 05:02:46;;;;;;;6.97;4.18;;;11.30;57.70;;;;;;2348975;53;22118;-66
2022/03/16 05:05:28;;;;;;;8.70;4.85;;;11.30;57.80;;;;;;2332947;53;21036;-66
2022/03/16 05:08:18;;;;;;;7.30;4.77;;;11.20;57.80;;;;;;2352552;53;20975;-66
2022/03/16 05:43:18;;;;;;;7.28;3.75;;;11.30;57.10;;;;;;2278932;54;23591;-67
2022/03/16 05:49:00;;;;;;;10.05;6.00;;;11.10;56.80;;;;;;2286608;55;20955;-66
2022/03/16 05:54:56;;;;;;;8.38;4.55;;;11.00;57.40;;;;;;2403789;54;20953;-66
2022/03/16 05:57:36;;;;;;;;;;;;;;;;;;;;;
2022/03/16 06:00:58;;;;;;;10.13;6.15;;;11.00;57.40;;;;;;2262784;56;21047;-67
2022/03/16 06:06:49;;;;;;;9.80;5.82;;;11.00;57.90;;;;;;2273214;55;20961;-67
2022/03/16 06:09:16;;;;;;;10.27;6.22;;;11.00;57.50;;;;;;2271064;54;21518;-66
2022/03/16 06:11:42;;;;;;;11.05;5.97;;;11.00;57.60;;;;;;2344544;54;20951;-67
2022/03/16 06:14:19;;;;;;;10.57;5.53;;;10.90;57.70;;;;;;2286046;55;20974;-67
2022/03/16 06:41:15;;;;;;;11.00;5.95;;;11.00;58.10;;;;;;2386515;54;21012;-66
2022/03/16 06:44:03;;;;;;;6.80;3.50;;;11.00;57.20;;;;;;2282372;55;21040;-66
2022/03/16 06:49:41;;;;;;;7.15;4.05;;;11.00;57.00;;;;;;2297926;55;20975;-67
2022/03/16 06:52:13;;;;;;;9.00;4.37;;;11.00;57.40;;;;;;2295168;55;21736;-66
2022/03/16 06:54:52;;;;;;;9.38;5.07;;;11.00;57.40;;;;;;2293999;55;20958;-66
2022/03/16 06:57:22;;;;;;;9.32;5.70;;;11.00;57.70;;;;;;2319197;55;20975;-66
2022/03/16 07:00:01;;;;;;;9.65;5.10;;;11.00;57.80;;;;;;2316009;55;21090;-66
2022/03/16 07:02:32;;;;;;;11.15;5.97;;;11.00;57.80;;;;;;2311286;55;21038;-67
2022/03/16 07:08:49;;;;;;;8.90;5.05;;;11.10;58.30;;;;;;2299872;55;21039;-67
2022/03/16 07:11:28;;;;;;;12.18;6.65;;;11.10;57.80;;;;;;2294813;56;21017;-67
2022/03/16 07:16:50;;;;;;;10.07;6.07;;;11.10;57.90;;;;;;2316493;55;20971;-66
2022/03/16 07:25:47;;;;;;;10.10;6.00;;;11.10;58.20;;;;;;2319108;55;21051;-66
2022/03/16 07:28:21;;;;;;;9.35;5.20;;;11.20;58.00;;;;;;2316161;56;21551;-67
2022/03/16 07:30:55;;;;;;;12.23;6.97;;;11.20;57.80;;;;;;2312385;56;21062;-67
2022/03/16 07:33:54;;;;;;;13.73;7.82;;;11.20;57.80;;;;;;2348236;55;20979;-67
2022/03/16 07:36:21;;;;;;;12.55;7.28;;;11.20;58.10;;;;;;2299888;55;21014;-66
2022/03/16 07:38:48;;;;;;;13.85;7.80;;;11.20;57.90;;;;;;2288343;55;21006;-66
2022/03/16 07:41:46;;;;;;;14.63;7.82;;;11.20;58.00;;;;;;2275475;58;21106;-67
2022/03/16 07:44:44;;;;;;;13.80;7.70;;;11.30;58.50;;;;;;2258268;55;20969;-67
2022/03/16 07:47:11;;;;;;;12.45;7.35;;;11.30;58.70;;;;;;2281777;55;20974;-67
2022/03/16 07:49:41;;;;;;;12.70;7.22;;;11.30;58.20;;;;;;2331627;54;21105;-67
2022/03/16 07:52:31;;;;;;;13.60;7.65;;;11.30;58.30;;;;;;2272098;55;21003;-67
2022/03/16 07:55:35;;;;;;;14.30;7.87;;;11.40;58.40;;;;;;2306794;58;21472;-66
2022/03/16 07:58:23;;;;;;;12.18;7.25;;;11.40;58.60;;;;;;2299023;55;20947;-67
2022/03/16 08:00:55;;;;;;;12.25;6.78;;;11.40;58.30;;;;;;2312406;55;21097;-67
2022/03/16 08:03:21;;;;;;;11.65;6.57;;;11.50;58.40;;;;;;2316403;54;20969;-66
2022/03/16 08:06:12;;;;;;;14.25;7.43;;;11.50;58.40;;;;;;2306248;55;20968;-67
2022/03/16 08:08:45;;;;;;;14.18;7.78;;;11.50;58.70;;;;;;2332274;54;20978;-67
2022/03/16 08:11:23;;;;;;;15.75;8.00;;;11.60;58.60;;;;;;2310722;55;20919;-67
2022/03/16 08:14:01;;;;;;;17.10;8.35;;;11.50;58.60;;;;;;2311982;54;20919;-66
2022/03/16 08:16:34;;;;;;;14.85;7.75;;;11.60;58.50;;;;;;2382896;54;20984;-66
2022/03/16 08:19:04;;;;;;;15.90;9.07;;;11.60;58.50;;;;;;2309235;55;20990;-66
2022/03/16 08:21:31;;;;;;;16.10;9.18;;;11.60;58.50;;;;;;2282073;55;20993;-67
2022/03/16 08:24:17;;;;;;;18.35;9.70;;;11.70;58.60;;;;;;2307844;54;21012;-67
2022/03/16 08:27:24;;;;;;;17.48;9.25;;;11.70;58.60;;;;;;2311752;54;21480;-67
2022/03/16 08:29:51;;;;;;;16.15;8.40;;;11.70;58.60;;;;;;2293794;55;20986;-67
2022/03/16 08:32:21;;;;;;;15.20;8.10;;;11.80;58.70;;;;;;2307621;55;21023;-67
2022/03/16 08:34:48;;;;;;;15.38;9.07;;;11.80;58.70;;;;;;2309851;54;21056;-67
2022/03/16 08:37:21;;;;;;;18.35;10.43;;;11.90;58.70;;;;;;2334936;54;21058;-66
2022/03/16 08:46:31;;;;;;;16.98;8.82;;;12.00;58.70;;;;;;2244148;57;21083;-66
2022/03/16 08:48:58;;;;;;;15.95;8.93;;;12.10;58.70;;;;;;2273572;55;21062;-67
2022/03/16 08:51:36;;;;;;;17.92;10.07;;;12.10;58.30;;;;;;2310383;55;21194;-66
2022/03/16 08:54:04;;;;;;;17.40;9.60;;;12.10;58.30;;;;;;2282910;56;20998;-67
2022/03/16 08:56:36;;;;;;;15.98;9.23;;;12.10;58.40;;;;;;2291021;55;21244;-67
2022/03/16 08:59:06;;;;;;;17.08;9.38;;;12.10;58.60;;;;;;2288794;55;21018;-67
2022/03/16 09:01:34;;;;;;;16.70;9.27;;;12.10;58.50;;;;;;2338218;54;21075;-67
2022/03/16 09:04:06;;;;;;;15.27;9.07;;;12.20;58.50;;;;;;2280902;55;21072;-67
2022/03/16 09:06:33;;;;;;;15.55;8.93;;;12.20;58.50;;;;;;2294747;55;21168;-67
2022/03/16 09:09:03;;;;;;;16.65;10.30;;;12.20;58.60;;;;;;2309886;54;21433;-67
2022/03/16 09:11:32;;;;;;;21.92;11.05;;;12.30;58.60;;;;;;2302979;55;20956;-66
2022/03/16 09:14:04;;;;;;;17.62;9.38;;;12.30;58.50;;;;;;2290362;54;21005;-67
2022/03/16 09:21:04;;;;;;;17.62;9.75;;;12.40;59.00;;;;;;2514230;55;21331;-67
2022/03/16 09:23:31;;;;;;;14.95;8.70;;;12.50;59.00;;;;;;2295159;55;21055;-66
2022/03/16 09:26:02;;;;;;;18.58;9.48;;;12.50;58.60;;;;;;2293286;56;21027;-67
2022/03/16 09:28:31;;;;;;;22.33;10.65;;;12.50;58.70;;;;;;2298325;55;20932;-67
2022/03/16 09:32:05;;;;;;;20.48;11.30;;;12.60;58.70;;;;;;2316208;55;20997;-67
2022/03/16 09:34:36;;;;;;;22.27;10.70;;;12.60;58.90;;;;;;2317352;55;21008;-67
2022/03/16 09:37:58;;;;;;;22.70;11.93;;;12.70;58.40;;;;;;2390321;54;20939;-67
2022/03/16 09:40:44;;;;;;;;;;;;;;;;;;;;;
2022/03/16 09:48:41;;;;;;;15.95;8.70;;;12.70;58.40;;;;;;2319572;55;21472;-66
2022/03/16 09:51:09;;;;;;;18.17;9.80;;;12.80;57.90;;;;;;2310719;54;20998;-67
2022/03/16 09:53:39;;;;;;;20.52;9.95;;;12.70;57.90;;;;;;2271675;55;20952;-67
2022/03/16 09:56:11;;;;;;;20.40;11.40;;;12.70;58.00;;;;;;2324495;54;21032;-66
2022/03/16 09:58:38;;;;;;;19.62;10.63;;;12.70;58.10;;;;;;2281715;55;21006;-67
2022/03/16 10:01:15;;;;;;;17.70;9.18;;;12.70;58.10;;;;;;2289727;55;21463;-66
2022/03/16 10:03:50;;;;;;;17.27;9.75;;;12.70;58.10;;;;;;2302702;54;20966;-66
2022/03/16 10:06:28;;;;;;;19.92;10.60;;;12.70;58.20;;;;;;2291486;55;21057;-67
2022/03/16 10:15:29;;;;;;;19.33;10.60;;;12.80;58.50;;;;;;2295502;55;20959;-67
2022/03/16 10:18:02;;;;;;;19.95;10.43;;;12.80;58.30;;;;;;2316153;55;21023;-67
2022/03/16 10:20:40;;;;;;;22.45;11.25;;;12.80;58.30;;;;;;2306479;55;20959;-67
2022/03/16 10:23:30;;;;;;;20.37;11.05;;;12.80;58.40;;;;;;2312159;55;21047;-66
2022/03/16 10:25:59;;;;;;;21.58;12.10;;;12.90;58.50;;;;;;2311349;55;20984;-66
2022/03/16 10:28:29;;;;;;;23.60;12.40;;;12.90;58.30;;;;;;2292743;55;20990;-66
2022/03/16 10:31:49;;;;;;;21.12;10.98;;;12.90;58.40;;;;;;2314974;55;20952;-67
2022/03/16 10:34:23;;;;;;;22.23;11.98;;;12.90;58.60;;;;;;2297229;54;20990;-67
2022/03/16 10:37:40;;;;;;;23.50;12.15;;;13.00;58.40;;;;;;2321331;54;20970;-67
2022/03/16 10:40:30;;;;;;;19.35;10.57;;;13.00;58.50;;;;;;2401991;54;20950;-67
2022/03/16 10:48:34;;;;;;;18.62;10.32;;;13.00;58.20;;;;;;2299900;55;21012;-68
2022/03/16 10:51:31;;;;;;;23.17;11.12;;;13.00;58.40;;;;;;2320767;54;21018;-67
2022/03/16 10:54:19;;;;;;;25.20;13.15;;;13.00;58.70;;;;;;2316144;55;21028;-67
2022/03/16 10:56:59;;;;;;;22.08;12.13;;;13.10;58.70;;;;;;2308746;55;20979;-66
2022/03/16 10:59:48;;;;;;;25.30;12.98;;;13.10;58.50;;;;;;2301062;55;21023;-67
2022/03/16 11:02:19;;;;;;;18.00;10.50;;;13.10;58.40;;;;;;2297734;55;21090;-67
2022/03/16 11:04:47;;;;;;;23.85;12.35;;;13.20;58.40;;;;;;2314034;54;21938;-67
2022/03/16 11:07:14;;;;;;;22.98;11.40;;;13.20;58.40;;;;;;2394168;55;21417;-66
2022/03/16 11:09:43;;;;;;;23.35;12.30;;;13.20;58.40;;;;;;2319091;55;21486;-68
2022/03/16 11:15:05;;;;;;;22.87;11.80;;;13.20;58.30;;;;;;2395669;54;20932;-67
2022/03/16 11:17:41;;;;;;;22.13;11.32;;;13.30;58.40;;;;;;2315249;55;21023;-67
2022/03/16 11:20:14;;;;;;;27.33;13.23;;;13.30;58.50;;;;;;2300519;54;20988;-68
2022/03/16 11:33:08;;;;;;;21.10;11.70;;;13.50;58.90;;;;;;2313970;54;21095;-67
2022/03/16 11:35:59;;;;;;;21.85;10.02;;;13.50;58.60;;;;;;2305689;55;21091;-67
2022/03/16 11:38:34;;;;;;;23.33;11.98;;;13.60;58.30;;;;;;2292062;55;21021;-67
2022/03/16 11:41:10;;;;;;;22.75;12.23;;;13.70;58.30;;;;;;2292157;55;21066;-66
2022/03/16 11:43:46;;;;;;;22.75;12.57;;;13.70;58.20;;;;;;2291476;54;21037;-67
2022/03/16 11:46:47;;;;;;;;;;;;;;;;;;;;;
2022/03/16 11:49:30;;;;;;;23.67;11.68;;;13.70;58.30;;;;;;2293103;54;20962;-68
2022/03/16 11:52:00;;;;;;;24.08;13.00;;;13.70;58.10;;;;;;2342723;54;21054;-67
2022/03/16 11:54:48;;;;;;;27.50;14.98;;;13.80;58.20;;;;;;2310400;55;20980;-67
2022/03/16 11:58:47;;;;;;;23.80;12.43;;;13.80;58.10;;;;;;2372444;54;21042;-67
2022/03/16 12:05:32;;;;;;;22.48;12.45;;;13.80;58.00;;;;;;2318424;55;21036;-68
2022/03/16 12:09:21;;;;;;;23.55;12.10;;;13.80;57.90;;;;;;2297947;55;20959;-67
2022/03/16 12:18:46;;;;;;;23.10;12.98;;;13.80;58.00;;;;;;2316553;55;20940;-67
2022/03/16 12:34:28;;;;;;;18.10;9.32;;;14.00;57.80;;;;;;2316203;55;21000;-67
2022/03/16 12:37:15;;;;;;;23.02;11.50;;;14.10;57.90;;;;;;2316518;55;21040;-67
2022/03/16 12:43:27;;;;;;;30.77;15.68;;;14.10;57.80;;;;;;2329414;55;21840;-68
2022/03/16 12:46:28;;;;;;;26.55;13.68;;;14.00;57.50;;;;;;2294007;56;21544;-67
2022/03/16 12:49:21;;;;;;;26.90;13.07;;;14.00;57.80;;;;;;2313155;55;21351;-68
2022/03/16 12:51:51;;;;;;;24.63;12.90;;;14.10;58.00;;;;;;2366660;54;21598;-66
2022/03/16 12:54:33;;;;;;;24.10;12.55;;;14.10;58.00;;;;;;2299921;55;21619;-67
2022/03/16 12:57:46;;;;;;;22.15;12.85;;;14.10;58.20;;;;;;2310484;55;20956;-66
2022/03/16 13:00:32;;;;;;;22.77;12.80;;;14.20;58.40;;;;;;2308404;55;20972;-68
2022/03/16 13:03:17;;;;;;;24.50;13.13;;;14.20;58.10;;;;;;2295055;55;21031;-67
2022/03/16 13:14:33;;;;;;;22.70;12.13;;;14.40;58.40;;;;;;2311766;58;20984;-67
2022/03/16 13:33:32;;;;;;;25.83;13.98;;;14.40;58.00;;;;;;2294982;55;20972;-67
2022/03/16 13:36:39;;;;;;;25.23;12.63;;;14.60;57.20;;;;;;2298041;55;20999;-67
2022/03/16 13:39:26;;;;;;;24.17;12.75;;;14.60;57.30;;;;;;2359595;54;20956;-66
2022/03/16 13:46:00;;;;;;;29.80;16.10;;;14.50;57.50;;;;;;2283325;55;21050;-67
2022/03/16 13:48:40;;;;;;;26.08;14.13;;;14.50;57.40;;;;;;2305969;55;21019;-67
2022/03/16 14:01:57;;;;;;;22.20;12.63;;;14.40;57.60;;;;;;2352976;54;21472;-67
2022/03/16 14:54:20;;;;;;;20.05;12.88;;;14.50;57.40;;;;;;2290312;55;21447;-65
2022/03/16 14:57:35;;;;;;;20.75;11.40;;;14.50;57.50;;;;;;2304567;55;21015;-66
2022/03/16 15:08:43;;;;;;;19.17;11.25;;;14.50;57.70;;;;;;2231065;56;21045;-66
2022/03/16 15:11:10;;;;;;;18.20;10.80;;;14.50;57.80;;;;;;2149991;59;21127;-65
2022/03/16 15:26:49;;;;;;;16.70;10.10;;;14.90;57.90;;;;;;2328734;55;21430;-66
2022/03/16 15:29:16;;;;;;;20.35;11.57;;;14.80;57.90;;;;;;2258457;56;21102;-66
2022/03/16 15:31:55;;;;;;;21.02;12.73;;;14.80;57.80;;;;;;2258935;56;21013;-66
2022/03/16 15:36:25;;;;;;;24.45;14.23;;;14.90;58.00;;;;;;2298856;55;21000;-65
2022/03/16 15:38:55;;;;;;;21.67;12.68;;;14.90;58.00;;;;;;2273858;55;21012;-65
2022/03/16 15:45:05;;;;;;;19.85;12.43;;;15.00;58.00;;;;;;2227283;56;21100;-66
2022/03/16 15:48:16;;;;;;;;;;;;;;;;;;;;;
2022/03/16 15:52:15;;;;;;;20.42;12.05;;;15.00;57.80;;;;;;2271136;55;21050;-66
2022/03/16 15:59:00;;;;;;;19.95;11.40;;;15.10;58.00;;;;;;2266647;55;21236;-68
2022/03/16 16:05:13;;;;;;;19.83;11.35;;;15.20;58.20;;;;;;2285878;55;21097;-68
2022/03/16 16:07:43;;;;;;;20.00;11.90;;;15.20;58.00;;;;;;2257089;55;20998;-68
2022/03/16 16:17:29;;;;;;;;;;;;;;;;;;;;;
2022/03/16 16:21:09;;;;;;;15.50;8.07;;;15.20;57.90;;;;;;2287449;56;22050;-68
2022/03/16 16:23:49;;;;;;;18.05;10.07;;;15.30;57.50;;;;;;2243081;55;21064;-69
2022/03/16 16:27:02;;;;;;;19.50;10.75;;;15.20;57.50;;;;;;2227250;55;21172;-67
2022/03/16 16:29:45;;;;;;;22.00;11.12;;;15.20;57.70;;;;;;2250074;55;20979;-67
2022/03/16 16:32:54;;;;;;;18.27;11.32;;;15.20;57.60;;;;;;2264961;55;21008;-68
2022/03/16 16:35:25;;;;;;;20.35;11.07;;;15.20;57.70;;;;;;2295368;55;21057;-68
2022/03/16 16:38:27;;;;;;;21.23;12.27;;;15.20;57.60;;;;;;2258683;55;21818;-68
2022/03/16 16:41:10;;;;;;;17.55;10.85;;;15.20;57.70;;;;;;2266360;55;20995;-68
2022/03/16 16:47:52;;;;;;;15.40;10.23;;;15.20;57.60;;;;;;2282920;55;21008;-67
2022/03/16 16:50:32;;;;;;;;;;;;;;;;;;;;;
2022/03/16 16:53:32;;;;;;;16.83;10.27;;;15.10;58.10;;;;;;2332448;55;21022;-67
2022/03/16 17:15:10;;;;;;;7.80;4.62;;;15.00;57.30;;;;;;2295632;55;20108;-67
2022/03/16 17:17:51;;;;;;;11.70;6.95;;;14.90;57.00;;;;;;2282552;55;21111;-67
2022/03/16 17:20:19;;;;;;;14.65;8.07;;;14.80;57.10;;;;;;2284675;55;20970;-68
2022/03/16 17:29:01;;;;;;;17.23;9.93;;;14.80;57.10;;;;;;2284185;55;21013;-68
2022/03/16 17:31:44;;;;;;;10.45;6.35;;;14.70;56.90;;;;;;2298193;55;21038;-67
2022/03/16 17:34:25;;;;;;;15.50;8.32;;;14.60;56.80;;;;;;2296920;56;21028;-68
2022/03/16 17:45:30;;;;;;;21.15;12.55;;;14.40;57.20;;;;;;2392311;56;20989;-67
2022/03/16 17:48:21;;;;;;;16.12;9.60;;;14.40;57.20;;;;;;2293071;55;21050;-68
2022/03/16 17:50:58;;;;;;;15.80;9.98;;;14.30;57.20;;;;;;2289769;55;20988;-67
2022/03/16 17:53:33;;;;;;;18.55;11.95;;;14.10;57.20;;;;;;2290615;55;21553;-68
2022/03/16 17:59:08;;;;;;;15.10;9.70;;;14.10;57.30;;;;;;2337024;55;21044;-67
2022/03/16 18:01:45;;;;;;;;;;;;;;;;;;;;;
2022/03/16 18:04:16;;;;;;;20.88;13.93;;;14.10;57.50;;;;;;2279137;55;20996;-68
2022/03/16 18:07:01;;;;;;;20.88;12.02;;;14.00;57.50;;;;;;2293108;55;21018;-67
2022/03/16 18:13:04;;;;;;;18.77;10.32;;;13.90;57.50;;;;;;2293063;55;21040;-68
2022/03/16 18:18:46;;;;;;;16.67;9.82;;;13.80;57.40;;;;;;2462419;55;21124;-67
2022/03/16 18:21:15;;;;;;;15.23;9.32;;;13.80;57.20;;;;;;2297155;55;20967;-67
2022/03/16 18:24:03;;;;;;;16.70;10.10;;;13.70;57.10;;;;;;2289106;55;21104;-67
2022/03/16 18:26:36;;;;;;;13.85;8.77;;;13.70;57.30;;;;;;2296507;55;21007;-68
2022/03/16 18:29:12;;;;;;;;;;;13.70;57.20;;;;;;2307527;55;21048;-68
2022/03/16 18:32:06;;;;;;;13.52;8.05;;;13.60;57.20;;;;;;2289032;55;20072;-67
2022/03/16 18:37:55;;;;;;;16.90;10.93;;;13.60;57.20;;;;;;2300084;55;21692;-67
2022/03/16 18:40:33;;;;;;;18.77;11.18;;;13.50;57.10;;;;;;2337430;55;20997;-68
2022/03/16 18:43:15;;;;;;;20.25;11.48;;;13.40;57.20;;;;;;2295752;55;21035;-68
2022/03/16 18:46:12;;;;;;;17.33;10.35;;;13.40;57.20;;;;;;2287628;55;21044;-68
2022/03/16 18:48:42;;;;;;;17.60;10.30;;;13.30;57.10;;;;;;2296130;55;21430;-67
2022/03/16 18:51:46;;;;;;;17.55;10.60;;;13.30;57.20;;;;;;2290143;55;21500;-68
2022/03/16 18:54:39;;;;;;;17.10;9.68;;;13.20;57.20;;;;;;2294407;55;20985;-68
2022/03/16 18:57:16;;;;;;;13.93;9.07;;;13.20;57.00;;;;;;2291506;55;21548;-68
2022/03/16 18:59:50;;;;;;;15.45;9.60;;;13.10;57.50;;;;;;2276705;55;21056;-67
2022/03/16 19:02:22;;;;;;;15.38;9.75;;;13.00;56.90;;;;;;2288914;55;21036;-67
2022/03/16 19:04:49;;;;;;;16.40;10.43;;;13.00;56.90;;;;;;2335368;55;20993;-67
2022/03/16 19:07:37;;;;;;;15.55;9.27;;;12.90;56.90;;;;;;2362783;54;20961;-67
2022/03/16 19:10:15;;;;;;;14.52;8.95;;;12.80;56.90;;;;;;2288877;56;21004;-67
2022/03/16 19:14:36;;;;;;;15.35;9.40;;;12.80;56.90;;;;;;2288695;55;21086;-67
2022/03/16 19:17:28;;;;;;;13.70;8.07;;;12.80;57.10;;;;;;2295604;55;20993;-68
2022/03/16 19:20:36;;;;;;;16.98;10.43;;;12.70;56.80;;;;;;2289959;55;20963;-68
2022/03/16 19:23:20;;;;;;;20.62;12.23;;;12.60;56.80;;;;;;2288108;55;20964;-68
2022/03/16 19:25:56;;;;;;;23.67;13.35;;;12.50;56.80;;;;;;2285955;55;21112;-67
2022/03/16 19:28:32;;;;;;;20.15;12.05;;;12.50;57.10;;;;;;2291599;56;20982;-67
2022/03/16 19:31:29;;;;;;;20.62;11.85;;;12.50;57.10;;;;;;2266593;55;21044;-67
2022/03/16 19:33:57;;;;;;;16.37;10.27;;;12.40;57.10;;;;;;2260550;55;21085;-68
2022/03/16 19:36:29;;;;;;;16.58;10.15;;;12.40;56.90;;;;;;2266824;54;21029;-68
2022/03/16 19:39:07;;;;;;;18.27;11.10;;;12.30;56.90;;;;;;2268207;55;21087;-68
2022/03/16 19:41:34;;;;;;;18.27;11.27;;;12.20;56.90;;;;;;2287331;55;21020;-68
2022/03/16 19:44:05;;;;;;;18.65;11.43;;;12.20;56.90;;;;;;2336902;54;20985;-69
2022/03/16 19:46:44;;;;;;;20.27;11.30;;;12.20;57.00;;;;;;2286384;55;20989;-68
2022/03/16 19:52:38;;;;;;;18.45;10.50;;;12.00;57.10;;;;;;2292575;55;20996;-67
2022/03/16 19:55:10;;;;;;;18.00;10.55;;;12.00;56.90;;;;;;2289781;55;20948;-67
2022/03/16 19:58:13;;;;;;;;;;;;;;;;;;;;;
2022/03/16 20:02:35;;;;;;;13.10;7.87;;;11.90;57.00;;;;;;2291832;55;20969;-67
2022/03/16 20:05:51;;;;;;;16.08;8.63;;;11.80;56.90;;;;;;2279117;57;21222;-67
2022/03/16 20:11:51;;;;;;;15.10;8.98;;;11.80;57.40;;;;;;2290242;55;21040;-68
2022/03/16 20:14:27;;;;;;;14.45;8.55;;;11.70;57.50;;;;;;2293284;55;20965;-68
2022/03/16 20:17:12;;;;;;;19.50;8.85;;;11.70;57.30;;;;;;2290314;56;20953;-67
2022/03/16 20:19:44;;;;;;;15.18;9.30;;;11.60;57.40;;;;;;2290100;55;21009;-68
2022/03/16 20:22:14;;;;;;;18.45;9.73;;;11.60;57.40;;;;;;2290073;55;21012;-68
2022/03/16 20:24:50;;;;;;;18.55;10.48;;;11.60;57.40;;;;;;2289910;55;20956;-67
2022/03/16 20:27:24;;;;;;;15.55;9.27;;;11.60;57.60;;;;;;2376132;55;20956;-67
2022/03/16 20:29:51;;;;;;;13.88;8.60;;;11.50;57.40;;;;;;2296998;55;20981;-67
2022/03/16 20:32:24;;;;;;;20.23;12.00;;;11.50;57.40;;;;;;2305282;55;20979;-68
2022/03/16 20:34:55;;;;;;;18.40;11.23;;;11.50;57.60;;;;;;2292173;55;21001;-67